Flight Number: EUR1336 Duration: 1:15
Departure: Stavanger (ENZV) at 14:00 Distance: 348 Nm
Arrival: Hamburg Fuhlsbuettel (EDDH) at 15:15 Equipment: B737

Weather Information
Stavanger / Sola, Norway (ENZV) 58-53N 005-38E 9M Aug 17, 2018 - 04:50 PM EDT / 2018.08.17 2050 UTC
Wind: from the S (170 degrees) at 7 MPH (6 KT):0
Visibility: greater than 7 mile(s):0
Sky conditions: mostly cloudy Temperature: 57 F (14 C) Dew Point: 51 F (11 C) Relative Humidity: 82% Pressure (altimeter): 29.85 in. Hg (1011 hPa)
ob: ENZV 172050Z 17006KT 9999 FEW025 BKN064 14/11 Q1011 cycle: 21
Sunrise: 04:07 Sunset: 19:15 (UTC)

Hamburg-Fuhlsbuettel, Germany (EDDH) 53-38N 010-00E 15M Aug 17, 2018 - 04:50 PM EDT / 2018.08.17 2050 UTC
Wind: from the NW (310 degrees) at 3 MPH (3 KT):0
Visibility: greater than 7 mile(s):0 Temperature: 57 F (14 C) Dew Point: 51 F (11 C) Relative Humidity: 82% Pressure (altimeter): 30.09 in. Hg (1019 hPa)
ob: EDDH 172050Z 31003KT CAVOK 14/11 Q1019 NOSIG cycle: 21
Sunrise: 04:07 Sunset: 18:40 (UTC)

TAF:2018/08/17 18:27 TAF EDDH 171700Z 1718/1824 30005KT 9999 FEW035 BECMG 1718/1721 VRB03KT PROB30 TEMPO 1801/1807 2500 BCFG BECMG 1806/1808 23009KT BECMG 1817/1819 27003KT

Previous Pireps for this route
Date Aircraft Flight time Fuel used Landing rate On time
2013-08-04B73701.177700-784No
2014-01-02B73701.188671-405Yes
2014-08-05B73701.267629-231No
2015-04-18B73701.217598-50No
2016-03-20B73701.156417-845Yes
2016-06-24B73701.247485-568No
(pireps marked green are flown by you)

Route map